sensor_id;sensor_type;location;lat;lon;timestamp;pressure;altitude;pressure_sealevel;temperature;humidity
9110;BME280;4590;51.462;6.692;2023-04-20T01:07:02;101806.72;;;9.51;34.97
9110;BME280;4590;51.462;6.692;2023-04-20T01:09:28;101808.09;;;9.48;34.78
9110;BME280;4590;51.462;6.692;2023-04-20T01:11:53;101804.53;;;9.43;35.02
9110;BME280;4590;51.462;6.692;2023-04-20T01:14:19;101795.47;;;9.42;35.19
9110;BME280;4590;51.462;6.692;2023-04-20T01:16:44;101803.72;;;9.42;35.33
9110;BME280;4590;51.462;6.692;2023-04-20T01:19:14;101785.00;;;9.39;35.54
9110;BME280;4590;51.462;6.692;2023-04-20T01:21:50;101790.78;;;9.43;35.49
9110;BME280;4590;51.462;6.692;2023-04-20T01:24:16;101784.47;;;9.47;35.40
9110;BME280;4590;51.462;6.692;2023-04-20T01:26:43;101777.59;;;9.50;35.57
9110;BME280;4590;51.462;6.692;2023-04-20T01:29:10;101775.41;;;9.52;35.93
9110;BME280;4590;51.462;6.692;2023-04-20T01:31:38;101774.03;;;9.55;35.70
9110;BME280;4590;51.462;6.692;2023-04-20T01:34:03;101755.09;;;9.58;35.84
9110;BME280;4590;51.462;6.692;2023-04-20T01:36:29;101760.84;;;9.57;35.96
9110;BME280;4590;51.462;6.692;2023-04-20T01:39:01;101749.88;;;9.57;36.19
9110;BME280;4590;51.462;6.692;2023-04-20T01:44:51;101768.28;;;9.56;36.43
9110;BME280;4590;51.462;6.692;2023-04-20T01:50:32;101771.84;;;9.57;36.65
9110;BME280;4590;51.462;6.692;2023-04-20T01:52:57;101750.69;;;9.57;36.35
9110;BME280;4590;51.462;6.692;2023-04-20T01:55:23;101749.88;;;9.57;36.64
9110;BME280;4590;51.462;6.692;2023-04-20T01:57:49;101737.22;;;9.56;36.71
9110;BME280;4590;51.462;6.692;2023-04-20T02:00:23;101738.03;;;9.51;36.70
9110;BME280;4590;51.462;6.692;2023-04-20T02:02:50;101722.94;;;9.54;36.41
9110;BME280;4590;51.462;6.692;2023-04-20T02:05:18;101722.09;;;9.53;36.68
9110;BME280;4590;51.462;6.692;2023-04-20T02:07:44;101735.03;;;9.53;36.44
9110;BME280;4590;51.462;6.692;2023-04-20T02:10:13;101732.53;;;9.46;36.94
9110;BME280;4590;51.462;6.692;2023-04-20T02:12:41;101727.31;;;9.44;36.84
9110;BME280;4590;51.462;6.692;2023-04-20T02:15:09;101733.66;;;9.40;37.20
9110;BME280;4590;51.462;6.692;2023-04-20T02:17:35;101714.97;;;9.37;37.27
9110;BME280;4590;51.462;6.692;2023-04-20T02:20:02;101719.91;;;9.35;37.21
9110;BME280;4590;51.462;6.692;2023-04-20T02:22:31;101720.19;;;9.33;37.28
9110;BME280;4590;51.462;6.692;2023-04-20T02:25:01;101714.97;;;9.32;37.56
9110;BME280;4590;51.462;6.692;2023-04-20T02:27:30;101702.06;;;9.32;37.43
9110;BME280;4590;51.462;6.692;2023-04-20T02:29:55;101698.75;;;9.30;37.32
9110;BME280;4590;51.462;6.692;2023-04-20T02:32:22;101684.50;;;9.28;37.38
9110;BME280;4590;51.462;6.692;2023-04-20T02:34:47;101699.84;;;9.29;37.63
9110;BME280;4590;51.462;6.692;2023-04-20T02:37:14;101685.03;;;9.25;37.53
9110;BME280;4590;51.462;6.692;2023-04-20T02:39:41;101681.75;;;9.23;37.79
9110;BME280;4590;51.462;6.692;2023-04-20T02:42:07;101693.53;;;9.24;37.95
9110;BME280;4590;51.462;6.692;2023-04-20T02:44:34;101689.44;;;9.11;38.25
9110;BME280;4590;51.462;6.692;2023-04-20T02:47:00;101689.13;;;9.18;37.99
9110;BME280;4590;51.462;6.692;2023-04-20T02:49:25;101686.94;;;9.14;38.09
9110;BME280;4590;51.462;6.692;2023-04-20T02:51:58;101688.03;;;9.08;38.72
9110;BME280;4590;51.462;6.692;2023-04-20T02:54:27;101681.44;;;9.14;38.51
9110;BME280;4590;51.462;6.692;2023-04-20T02:56:53;101679.28;;;9.11;38.76
9110;BME280;4590;51.462;6.692;2023-04-20T02:59:19;101676.53;;;9.11;38.59
9110;BME280;4590;51.462;6.692;2023-04-20T03:01:46;101667.19;;;9.12;38.93
9110;BME280;4590;51.462;6.692;2023-04-20T03:04:15;101661.97;;;9.11;39.10
9110;BME280;4590;51.462;6.692;2023-04-20T03:06:40;101671.03;;;9.11;38.96
9110;BME280;4590;51.462;6.692;2023-04-20T03:09:08;101665.81;;;9.10;38.98
9110;BME280;4590;51.462;6.692;2023-04-20T03:11:39;101668.56;;;9.10;39.22
9110;BME280;4590;51.462;6.692;2023-04-20T03:14:05;101662.25;;;9.09;39.34
9110;BME280;4590;51.462;6.692;2023-04-20T03:16:31;101662.25;;;9.09;39.28
9110;BME280;4590;51.462;6.692;2023-04-20T03:18:56;101671.31;;;9.10;39.28
9110;BME280;4590;51.462;6.692;2023-04-20T03:21:23;101665.81;;;9.05;39.67
9110;BME280;4590;51.462;6.692;2023-04-20T03:23:52;101659.50;;;8.94;39.83
9110;BME280;4590;51.462;6.692;2023-04-20T03:26:21;101658.13;;;8.97;39.40
9110;BME280;4590;51.462;6.692;2023-04-20T03:28:49;101655.09;;;8.93;39.79
9110;BME280;4590;51.462;6.692;2023-04-20T03:31:16;101649.88;;;8.87;40.00
9110;BME280;4590;51.462;6.692;2023-04-20T03:33:43;101646.56;;;8.90;40.16
9110;BME280;4590;51.462;6.692;2023-04-20T03:36:09;101643.84;;;8.95;40.09
9110;BME280;4590;51.462;6.692;2023-04-20T03:38:39;101639.44;;;8.94;40.28
9110;BME280;4590;51.462;6.692;2023-04-20T03:41:07;101632.59;;;8.96;39.98
9110;BME280;4590;51.462;6.692;2023-04-20T03:43:33;101642.19;;;8.99;40.20
9110;BME280;4590;51.462;6.692;2023-04-20T03:45:58;101644.66;;;9.00;40.10
9110;BME280;4590;51.462;6.692;2023-04-20T03:48:26;101645.75;;;8.99;40.56
9110;BME280;4590;51.462;6.692;2023-04-20T03:50:53;101643.81;;;9.00;40.39
9110;BME280;4590;51.462;6.692;2023-04-20T03:53:20;101630.94;;;9.00;40.55
9110;BME280;4590;51.462;6.692;2023-04-20T03:58:38;101629.00;;;9.01;40.80
9110;BME280;4590;51.462;6.692;2023-04-20T04:01:04;101638.06;;;9.01;41.26
9110;BME280;4590;51.462;6.692;2023-04-20T04:03:36;101629.00;;;9.01;41.61
9110;BME280;4590;51.462;6.692;2023-04-20T04:06:02;101625.72;;;9.04;41.19
9110;BME280;4590;51.462;6.692;2023-04-20T04:08:32;101627.91;;;9.02;41.64
9110;BME280;4590;51.462;6.692;2023-04-20T04:10:59;101619.13;;;9.05;41.40
9110;BME280;4590;51.462;6.692;2023-04-20T04:13:24;101626.81;;;9.08;41.48
9110;BME280;4590;51.462;6.692;2023-04-20T04:15:53;101620.78;;;9.06;41.71
9110;BME280;4590;51.462;6.692;2023-04-20T04:18:54;101616.94;;;9.02;42.38
9110;BME280;4590;51.462;6.692;2023-04-20T04:21:20;101613.09;;;9.08;41.61
9110;BME280;4590;51.462;6.692;2023-04-20T04:23:45;101605.97;;;9.07;41.89
9110;BME280;4590;51.462;6.692;2023-04-20T04:26:13;101596.91;;;9.06;42.21
9110;BME280;4590;51.462;6.692;2023-04-20T04:28:39;101594.72;;;9.08;42.22
9110;BME280;4590;51.462;6.692;2023-04-20T04:31:08;101596.06;;;9.06;42.43
9110;BME280;4590;51.462;6.692;2023-04-20T04:33:33;101603.22;;;9.07;42.43
9110;BME280;4590;51.462;6.692;2023-04-20T04:36:02;101599.38;;;9.08;42.67
9110;BME280;4590;51.462;6.692;2023-04-20T04:38:29;101587.84;;;9.11;42.86
9110;BME280;4590;51.462;6.692;2023-04-20T04:41:00;101590.84;;;9.14;43.41
9110;BME280;4590;51.462;6.692;2023-04-20T04:43:26;101590.03;;;9.19;43.19
9110;BME280;4590;51.462;6.692;2023-04-20T04:45:51;101589.47;;;9.22;43.31
9110;BME280;4590;51.462;6.692;2023-04-20T04:48:20;101592.75;;;9.24;43.70
9110;BME280;4590;51.462;6.692;2023-04-20T04:50:47;101588.66;;;9.27;43.80
9110;BME280;4590;51.462;6.692;2023-04-20T04:53:12;101585.91;;;9.27;44.04
9110;BME280;4590;51.462;6.692;2023-04-20T04:55:39;101591.13;;;9.23;44.49
9110;BME280;4590;51.462;6.692;2023-04-20T04:58:08;101589.19;;;9.24;44.88
9110;BME280;4590;51.462;6.692;2023-04-20T05:00:33;101588.66;;;9.22;45.36
9110;BME280;4590;51.462;6.692;2023-04-20T05:02:59;101588.38;;;9.18;46.38
9110;BME280;4590;51.462;6.692;2023-04-20T05:05:42;101593.31;;;9.16;46.41
9110;BME280;4590;51.462;6.692;2023-04-20T05:08:08;101582.88;;;9.13;46.37
9110;BME280;4590;51.462;6.692;2023-04-20T05:10:35;101594.41;;;9.15;46.86
9110;BME280;4590;51.462;6.692;2023-04-20T05:13:03;101593.59;;;9.09;47.46
9110;BME280;4590;51.462;6.692;2023-04-20T05:15:30;101602.66;;;9.00;48.10
9110;BME280;4590;51.462;6.692;2023-04-20T05:17:57;101602.66;;;9.05;48.54
9110;BME280;4590;51.462;6.692;2023-04-20T05:20:23;101592.25;;;8.92;49.33
9110;BME280;4590;51.462;6.692;2023-04-20T05:23:08;101606.22;;;8.90;50.54
9110;BME280;4590;51.462;6.692;2023-04-20T05:25:35;101605.41;;;8.95;49.43
9110;BME280;4590;51.462;6.692;2023-04-20T05:28:01;101612.56;;;8.96;50.08
9110;BME280;4590;51.462;6.692;2023-04-20T05:30:26;101618.88;;;8.96;50.27
9110;BME280;4590;51.462;6.692;2023-04-20T05:32:52;101601.56;;;8.96;50.51
9110;BME280;4590;51.462;6.692;2023-04-20T05:35:18;101604.03;;;8.97;50.70
9110;BME280;4590;51.462;6.692;2023-04-20T05:37:45;101607.59;;;8.98;50.36
9110;BME280;4590;51.462;6.692;2023-04-20T05:40:12;101609.00;;;8.95;50.86
9110;BME280;4590;51.462;6.692;2023-04-20T05:42:39;101605.41;;;9.00;51.19
9110;BME280;4590;51.462;6.692;2023-04-20T05:45:07;101597.47;;;8.93;51.32
9110;BME280;4590;51.462;6.692;2023-04-20T05:47:33;101604.56;;;8.99;51.17
9110;BME280;4590;51.462;6.692;2023-04-20T05:50:00;101609.78;;;9.01;51.09
9110;BME280;4590;51.462;6.692;2023-04-20T05:52:28;101609.78;;;9.01;50.91
9110;BME280;4590;51.462;6.692;2023-04-20T05:55:10;101598.53;;;8.97;51.63
9110;BME280;4590;51.462;6.692;2023-04-20T05:57:35;101600.47;;;9.02;51.54
9110;BME280;4590;51.462;6.692;2023-04-20T06:00:21;101606.22;;;9.05;51.84
9110;BME280;4590;51.462;6.692;2023-04-20T06:54:38;101598.53;;;8.82;53.92
9110;BME280;4590;51.462;6.692;2023-04-20T07:13:50;101617.72;;;8.57;55.86
9110;BME280;4590;51.462;6.692;2023-04-20T07:16:16;101604.81;;;8.57;55.24
9110;BME280;4590;51.462;6.692;2023-04-20T07:18:41;101606.19;;;8.44;56.24
9110;BME280;4590;51.462;6.692;2023-04-20T07:21:18;101604.81;;;8.52;55.98
9110;BME280;4590;51.462;6.692;2023-04-20T07:44:32;101604.00;;;8.57;56.22
9110;BME280;4590;51.462;6.692;2023-04-20T08:31:14;101576.00;;;9.26;54.53
9110;BME280;4590;51.462;6.692;2023-04-20T09:46:50;101558.41;;;9.37;54.52
9110;BME280;4590;51.462;6.692;2023-04-20T18:23:02;101442.00;;;11.79;46.09
9110;BME280;4590;51.462;6.692;2023-04-20T21:40:04;101409.47;;;9.94;62.33
